sensor_id;sensor_type;location;lat;lon;timestamp;pressure;altitude;pressure_sealevel;temperature;humidity
33286;BME280;19656;50.096;20.014;2023-04-07T00:02:18;98940.94;;;3.85;69.14
33286;BME280;19656;50.096;20.014;2023-04-07T00:07:21;98936.09;;;3.88;69.01
33286;BME280;19656;50.096;20.014;2023-04-07T00:12:25;98931.15;;;3.89;69.05
33286;BME280;19656;50.096;20.014;2023-04-07T00:17:28;98930.87;;;3.82;69.00
33286;BME280;19656;50.096;20.014;2023-04-07T00:22:31;98926.56;;;3.80;69.14
33286;BME280;19656;50.096;20.014;2023-04-07T00:27:35;98927.23;;;3.81;69.14
33286;BME280;19656;50.096;20.014;2023-04-07T00:32:39;98920.09;;;3.80;69.14
33286;BME280;19656;50.096;20.014;2023-04-07T00:37:42;98916.91;;;3.85;69.16
33286;BME280;19656;50.096;20.014;2023-04-07T00:42:46;98913.90;;;3.91;69.19
33286;BME280;19656;50.096;20.014;2023-04-07T00:47:49;98909.84;;;3.91;69.18
33286;BME280;19656;50.096;20.014;2023-04-07T00:52:53;98910.16;;;3.92;69.13
33286;BME280;19656;50.096;20.014;2023-04-07T00:57:58;98907.91;;;3.96;69.02
33286;BME280;19656;50.096;20.014;2023-04-07T01:03:08;98902.67;;;3.95;68.79
33286;BME280;19656;50.096;20.014;2023-04-07T01:08:20;98900.67;;;3.97;68.89
33286;BME280;19656;50.096;20.014;2023-04-07T01:13:30;98905.73;;;3.93;69.02
33286;BME280;19656;50.096;20.014;2023-04-07T01:18:46;98912.50;;;3.90;69.01
33286;BME280;19656;50.096;20.014;2023-04-07T01:29:30;98904.48;;;3.84;69.27
33286;BME280;19656;50.096;20.014;2023-04-07T01:34:37;98893.80;;;3.93;69.30
33286;BME280;19656;50.096;20.014;2023-04-07T01:39:41;98880.23;;;4.04;69.12
33286;BME280;19656;50.096;20.014;2023-04-07T01:44:45;98867.50;;;4.11;68.99
33286;BME280;19656;50.096;20.014;2023-04-07T01:49:50;98862.86;;;4.09;69.02
33286;BME280;19656;50.096;20.014;2023-04-07T01:54:54;98867.16;;;4.06;68.83
33286;BME280;19656;50.096;20.014;2023-04-07T01:59:57;98882.08;;;4.01;68.88
33286;BME280;19656;50.096;20.014;2023-04-07T02:05:08;98888.16;;;3.93;69.01
33286;BME280;19656;50.096;20.014;2023-04-07T02:10:16;98886.34;;;3.91;69.13
33286;BME280;19656;50.096;20.014;2023-04-07T02:15:21;98879.31;;;3.91;69.15
33286;BME280;19656;50.096;20.014;2023-04-07T02:20:26;98876.50;;;3.91;69.37
33286;BME280;19656;50.096;20.014;2023-04-07T02:25:31;98870.38;;;3.91;69.34
33286;BME280;19656;50.096;20.014;2023-04-07T02:30:34;98873.44;;;3.88;69.27
33286;BME280;19656;50.096;20.014;2023-04-07T02:35:39;98867.03;;;3.91;69.47
33286;BME280;19656;50.096;20.014;2023-04-07T02:40:42;98863.84;;;3.97;69.41
33286;BME280;19656;50.096;20.014;2023-04-07T02:45:46;98865.08;;;4.01;69.37
33286;BME280;19656;50.096;20.014;2023-04-07T02:50:50;98863.84;;;4.06;69.31
33286;BME280;19656;50.096;20.014;2023-04-07T02:55:53;98863.01;;;4.18;69.52
33286;BME280;19656;50.096;20.014;2023-04-07T03:00:57;98862.79;;;4.15;69.60
33286;BME280;19656;50.096;20.014;2023-04-07T03:06:04;98858.80;;;4.09;69.27
33286;BME280;19656;50.096;20.014;2023-04-07T03:11:09;98851.48;;;4.03;69.08
33286;BME280;19656;50.096;20.014;2023-04-07T03:16:13;98843.25;;;3.98;69.55
33286;BME280;19656;50.096;20.014;2023-04-07T03:21:28;98849.50;;;4.04;69.72
33286;BME280;19656;50.096;20.014;2023-04-07T03:26:34;98848.43;;;4.00;69.49
33286;BME280;19656;50.096;20.014;2023-04-07T03:31:38;98846.46;;;4.05;69.81
33286;BME280;19656;50.096;20.014;2023-04-07T03:36:41;98855.91;;;4.15;69.48
33286;BME280;19656;50.096;20.014;2023-04-07T03:41:44;98861.09;;;4.18;69.36
33286;BME280;19656;50.096;20.014;2023-04-07T03:46:48;98869.35;;;4.13;69.10
33286;BME280;19656;50.096;20.014;2023-04-07T03:51:55;98861.04;;;4.10;69.31
33286;BME280;19656;50.096;20.014;2023-04-07T03:56:58;98859.23;;;4.07;69.54
33286;BME280;19656;50.096;20.014;2023-04-07T04:02:02;98871.42;;;4.14;69.48
33286;BME280;19656;50.096;20.014;2023-04-07T04:07:05;98882.14;;;4.09;69.29
33286;BME280;19656;50.096;20.014;2023-04-07T04:12:24;98877.45;;;3.98;69.42
33286;BME280;19656;50.096;20.014;2023-04-07T04:17:39;98878.50;;;3.93;69.81
33286;BME280;19656;50.096;20.014;2023-04-07T04:22:43;98888.38;;;3.97;69.95
33286;BME280;19656;50.096;20.014;2023-04-07T04:27:47;98871.06;;;4.09;69.52
33286;BME280;19656;50.096;20.014;2023-04-07T04:32:59;98817.75;;;4.13;69.56
33286;BME280;19656;50.096;20.014;2023-04-07T04:38:11;98866.73;;;4.17;69.40
33286;BME280;19656;50.096;20.014;2023-04-07T04:43:18;98877.69;;;4.11;69.52
33286;BME280;19656;50.096;20.014;2023-04-07T04:48:21;98873.95;;;4.08;69.63
33286;BME280;19656;50.096;20.014;2023-04-07T04:53:25;98886.59;;;4.08;69.64
33286;BME280;19656;50.096;20.014;2023-04-07T04:58:32;98886.67;;;4.05;69.58
33286;BME280;19656;50.096;20.014;2023-04-07T05:03:36;98884.05;;;3.96;69.85
33286;BME280;19656;50.096;20.014;2023-04-07T05:08:46;98897.55;;;3.96;69.97
33286;BME280;19656;50.096;20.014;2023-04-07T05:13:50;98903.37;;;4.00;70.22
33286;BME280;19656;50.096;20.014;2023-04-07T05:18:54;98897.38;;;4.14;69.83
33286;BME280;19656;50.096;20.014;2023-04-07T05:23:59;98889.73;;;4.26;69.65
33286;BME280;19656;50.096;20.014;2023-04-07T05:29:05;98887.02;;;4.33;69.43
33286;BME280;19656;50.096;20.014;2023-04-07T05:34:08;98883.46;;;4.34;69.17
33286;BME280;19656;50.096;20.014;2023-04-07T05:39:16;98882.15;;;4.22;69.36
33286;BME280;19656;50.096;20.014;2023-04-07T05:44:20;98886.83;;;4.24;69.54
33286;BME280;19656;50.096;20.014;2023-04-07T05:49:24;98889.88;;;4.26;69.44
33286;BME280;19656;50.096;20.014;2023-04-07T05:54:35;98887.36;;;4.28;69.60
33286;BME280;19656;50.096;20.014;2023-04-07T05:59:39;98883.80;;;4.30;69.58
33286;BME280;19656;50.096;20.014;2023-04-07T06:04:43;98874.50;;;4.24;69.49
33286;BME280;19656;50.096;20.014;2023-04-07T06:09:51;98865.94;;;4.33;69.58
33286;BME280;19656;50.096;20.014;2023-04-07T06:14:54;98867.30;;;4.43;69.50
33286;BME280;19656;50.096;20.014;2023-04-07T06:19:58;98874.42;;;4.49;69.37
33286;BME280;19656;50.096;20.014;2023-04-07T06:25:01;98881.48;;;4.53;69.24
33286;BME280;19656;50.096;20.014;2023-04-07T06:30:07;98892.42;;;4.47;69.10
33286;BME280;19656;50.096;20.014;2023-04-07T06:35:11;98880.25;;;4.48;69.17
33286;BME280;19656;50.096;20.014;2023-04-07T06:40:14;98874.61;;;4.44;69.11
33286;BME280;19656;50.096;20.014;2023-04-07T06:45:17;98865.77;;;4.46;69.22
33286;BME280;19656;50.096;20.014;2023-04-07T06:50:20;98873.27;;;4.39;69.19
33286;BME280;19656;50.096;20.014;2023-04-07T06:55:24;98882.42;;;4.42;69.39
33286;BME280;19656;50.096;20.014;2023-04-07T07:00:29;98866.13;;;4.50;69.30
33286;BME280;19656;50.096;20.014;2023-04-07T07:05:33;98866.06;;;4.60;69.25
33286;BME280;19656;50.096;20.014;2023-04-07T07:10:36;98871.43;;;4.67;69.21
33286;BME280;19656;50.096;20.014;2023-04-07T07:15:39;98877.48;;;4.65;69.08
33286;BME280;19656;50.096;20.014;2023-04-07T07:20:43;98876.20;;;4.66;69.18
33286;BME280;19656;50.096;20.014;2023-04-07T07:25:47;98869.48;;;4.71;69.15
33286;BME280;19656;50.096;20.014;2023-04-07T07:30:50;98872.07;;;4.72;68.87
33286;BME280;19656;50.096;20.014;2023-04-07T07:35:53;98876.92;;;4.74;69.01
33286;BME280;19656;50.096;20.014;2023-04-07T07:40:57;98882.10;;;4.68;68.96
33286;BME280;19656;50.096;20.014;2023-04-07T07:46:00;98882.95;;;4.69;69.29
33286;BME280;19656;50.096;20.014;2023-04-07T07:51:04;98887.88;;;4.73;69.39
33286;BME280;19656;50.096;20.014;2023-04-07T07:56:09;98878.72;;;4.82;69.14
33286;BME280;19656;50.096;20.014;2023-04-07T08:01:12;98876.16;;;4.97;69.06
33286;BME280;19656;50.096;20.014;2023-04-07T08:06:16;98880.79;;;5.08;68.92
33286;BME280;19656;50.096;20.014;2023-04-07T08:11:19;98878.77;;;5.14;68.62
33286;BME280;19656;50.096;20.014;2023-04-07T08:16:23;98884.70;;;5.11;68.47
33286;BME280;19656;50.096;20.014;2023-04-07T08:21:27;98891.56;;;5.07;68.65
33286;BME280;19656;50.096;20.014;2023-04-07T08:26:30;98896.82;;;4.94;68.85
33286;BME280;19656;50.096;20.014;2023-04-07T08:31:34;98906.30;;;4.91;68.98
33286;BME280;19656;50.096;20.014;2023-04-07T08:36:37;98916.02;;;4.81;69.20
33286;BME280;19656;50.096;20.014;2023-04-07T08:41:41;98919.44;;;4.79;69.55
33286;BME280;19656;50.096;20.014;2023-04-07T08:46:45;98921.86;;;4.89;69.62
33286;BME280;19656;50.096;20.014;2023-04-07T08:51:50;98919.44;;;5.00;69.44
33286;BME280;19656;50.096;20.014;2023-04-07T08:56:54;98909.09;;;5.04;69.34
33286;BME280;19656;50.096;20.014;2023-04-07T09:01:59;98908.25;;;5.07;69.31
33286;BME280;19656;50.096;20.014;2023-04-07T09:07:02;98898.41;;;5.07;69.24
33286;BME280;19656;50.096;20.014;2023-04-07T09:12:06;98888.30;;;5.09;69.27
33286;BME280;19656;50.096;20.014;2023-04-07T09:17:09;98880.67;;;5.07;69.26
33286;BME280;19656;50.096;20.014;2023-04-07T09:22:13;98875.30;;;5.09;69.39
33286;BME280;19656;50.096;20.014;2023-04-07T09:27:17;98873.48;;;5.06;69.09
33286;BME280;19656;50.096;20.014;2023-04-07T09:32:35;98873.80;;;5.03;69.21
33286;BME280;19656;50.096;20.014;2023-04-07T09:37:41;98876.56;;;5.04;69.32
33286;BME280;19656;50.096;20.014;2023-04-07T09:42:46;98878.52;;;5.12;69.52
33286;BME280;19656;50.096;20.014;2023-04-07T09:47:50;98876.17;;;5.17;69.28
33286;BME280;19656;50.096;20.014;2023-04-07T09:52:54;98872.44;;;5.14;69.47
33286;BME280;19656;50.096;20.014;2023-04-07T09:57:57;98872.52;;;5.17;69.55
33286;BME280;19656;50.096;20.014;2023-04-07T10:03:02;98867.63;;;5.19;69.68
33286;BME280;19656;50.096;20.014;2023-04-07T10:08:06;98871.15;;;5.15;69.62
33286;BME280;19656;50.096;20.014;2023-04-07T10:13:10;98880.23;;;5.13;69.78
33286;BME280;19656;50.096;20.014;2023-04-07T10:18:15;98886.09;;;5.11;69.57
33286;BME280;19656;50.096;20.014;2023-04-07T10:28:45;98868.55;;;5.31;69.72
33286;BME280;19656;50.096;20.014;2023-04-07T10:33:51;98871.30;;;5.36;69.37
33286;BME280;19656;50.096;20.014;2023-04-07T10:50:19;98869.05;;;5.35;69.24
33286;BME280;19656;50.096;20.014;2023-04-07T10:55:31;98869.60;;;5.35;69.15
33286;BME280;19656;50.096;20.014;2023-04-07T11:00:35;98879.00;;;5.34;69.63
33286;BME280;19656;50.096;20.014;2023-04-07T11:05:40;98886.27;;;5.40;69.45
33286;BME280;19656;50.096;20.014;2023-04-07T11:10:46;98882.80;;;5.43;69.34
33286;BME280;19656;50.096;20.014;2023-04-07T11:15:50;98889.38;;;5.37;69.28
33286;BME280;19656;50.096;20.014;2023-04-07T11:20:56;98888.17;;;5.41;69.46
33286;BME280;19656;50.096;20.014;2023-04-07T11:26:03;98879.25;;;5.52;69.32
33286;BME280;19656;50.096;20.014;2023-04-07T11:31:07;98880.23;;;5.54;69.05
33286;BME280;19656;50.096;20.014;2023-04-07T11:36:25;98880.20;;;5.46;69.03
33286;BME280;19656;50.096;20.014;2023-04-07T11:43:23;98885.52;;;5.53;69.14
33286;BME280;19656;50.096;20.014;2023-04-07T11:48:30;98880.92;;;5.50;69.07
33286;BME280;19656;50.096;20.014;2023-04-07T11:53:35;98879.36;;;5.53;68.92
33286;BME280;19656;50.096;20.014;2023-04-07T11:58:53;98874.88;;;5.60;68.92
33286;BME280;19656;50.096;20.014;2023-04-07T12:04:01;98877.34;;;5.67;68.94
33286;BME280;19656;50.096;20.014;2023-04-07T12:09:32;98883.48;;;5.71;68.91
33286;BME280;19656;50.096;20.014;2023-04-07T12:14:39;98879.45;;;5.67;69.09
33286;BME280;19656;50.096;20.014;2023-04-07T12:19:43;98880.29;;;5.72;69.06
33286;BME280;19656;50.096;20.014;2023-04-07T12:24:47;98882.55;;;5.73;68.87
33286;BME280;19656;50.096;20.014;2023-04-07T12:30:01;98883.42;;;5.73;68.89
33286;BME280;19656;50.096;20.014;2023-04-07T12:35:09;98888.54;;;5.68;69.33
33286;BME280;19656;50.096;20.014;2023-04-07T12:40:13;98896.96;;;5.65;69.44
33286;BME280;19656;50.096;20.014;2023-04-07T12:45:18;98894.48;;;5.73;69.70
33286;BME280;19656;50.096;20.014;2023-04-07T12:50:34;98889.89;;;5.81;69.20
33286;BME280;19656;50.096;20.014;2023-04-07T12:56:17;98888.74;;;5.87;68.83
33286;BME280;19656;50.096;20.014;2023-04-07T13:01:57;98890.20;;;5.95;69.06
33286;BME280;19656;50.096;20.014;2023-04-07T13:07:01;98892.58;;;5.97;68.87
33286;BME280;19656;50.096;20.014;2023-04-07T13:12:20;98890.05;;;5.99;68.61
33286;BME280;19656;50.096;20.014;2023-04-07T13:17:40;98892.11;;;5.91;68.94
33286;BME280;19656;50.096;20.014;2023-04-07T13:23:05;98887.43;;;5.93;69.18
33286;BME280;19656;50.096;20.014;2023-04-07T13:28:11;98891.80;;;5.94;69.27
33286;BME280;19656;50.096;20.014;2023-04-07T13:33:15;98896.55;;;5.89;69.47
33286;BME280;19656;50.096;20.014;2023-04-07T13:42:51;98898.28;;;5.99;69.69
33286;BME280;19656;50.096;20.014;2023-04-07T13:48:31;98893.30;;;6.00;69.90
33286;BME280;19656;50.096;20.014;2023-04-07T13:54:00;98895.94;;;6.00;69.87
33286;BME280;19656;50.096;20.014;2023-04-07T13:59:12;98902.83;;;6.00;69.60
33286;BME280;19656;50.096;20.014;2023-04-07T14:04:18;98910.48;;;6.06;69.79
33286;BME280;19656;50.096;20.014;2023-04-07T14:09:24;98911.14;;;6.14;69.97
33286;BME280;19656;50.096;20.014;2023-04-07T14:14:36;98911.65;;;6.19;69.28
33286;BME280;19656;50.096;20.014;2023-04-07T14:19:43;98912.95;;;6.21;69.15
33286;BME280;19656;50.096;20.014;2023-04-07T14:25:20;98919.41;;;6.26;69.01
33286;BME280;19656;50.096;20.014;2023-04-07T14:30:26;98917.94;;;6.31;68.92
33286;BME280;19656;50.096;20.014;2023-04-07T14:36:04;98917.21;;;6.31;68.84
33286;BME280;19656;50.096;20.014;2023-04-07T14:41:08;98917.94;;;6.39;68.97
33286;BME280;19656;50.096;20.014;2023-04-07T14:46:19;98920.21;;;6.43;68.77
33286;BME280;19656;50.096;20.014;2023-04-07T14:51:27;98919.65;;;6.36;68.68
33286;BME280;19656;50.096;20.014;2023-04-07T14:56:32;98917.21;;;6.35;69.44
33286;BME280;19656;50.096;20.014;2023-04-07T15:01:50;98918.27;;;6.35;69.25
33286;BME280;19656;50.096;20.014;2023-04-07T15:06:55;98917.13;;;6.37;69.39
33286;BME280;19656;50.096;20.014;2023-04-07T15:12:03;98918.52;;;6.45;69.44
33286;BME280;19656;50.096;20.014;2023-04-07T15:17:07;98917.45;;;6.49;69.42
33286;BME280;19656;50.096;20.014;2023-04-07T15:22:10;98917.59;;;6.46;69.51
33286;BME280;19656;50.096;20.014;2023-04-07T15:27:13;98915.96;;;6.47;69.71
33286;BME280;19656;50.096;20.014;2023-04-07T15:32:17;98920.05;;;6.43;69.84
33286;BME280;19656;50.096;20.014;2023-04-07T15:37:20;98922.48;;;6.32;69.77
33286;BME280;19656;50.096;20.014;2023-04-07T15:42:24;98922.90;;;6.23;70.17
33286;BME280;19656;50.096;20.014;2023-04-07T15:47:27;98920.55;;;6.20;70.17
33286;BME280;19656;50.096;20.014;2023-04-07T15:52:31;98923.23;;;6.20;70.86
33286;BME280;19656;50.096;20.014;2023-04-07T15:57:34;98928.95;;;6.29;70.96
33286;BME280;19656;50.096;20.014;2023-04-07T16:02:38;98930.34;;;6.22;70.53
33286;BME280;19656;50.096;20.014;2023-04-07T16:07:43;98931.67;;;6.31;70.85
33286;BME280;19656;50.096;20.014;2023-04-07T16:12:49;98934.38;;;6.42;70.61
33286;BME280;19656;50.096;20.014;2023-04-07T16:17:52;98936.20;;;6.36;70.41
33286;BME280;19656;50.096;20.014;2023-04-07T16:22:56;98940.88;;;6.27;70.77
33286;BME280;19656;50.096;20.014;2023-04-07T16:27:59;98947.53;;;6.20;70.93
33286;BME280;19656;50.096;20.014;2023-04-07T16:33:03;98952.42;;;6.13;71.26
33286;BME280;19656;50.096;20.014;2023-04-07T16:38:06;98959.88;;;6.16;71.80
33286;BME280;19656;50.096;20.014;2023-04-07T16:43:10;98966.20;;;6.20;71.50
33286;BME280;19656;50.096;20.014;2023-04-07T16:48:14;98966.77;;;6.19;71.55
33286;BME280;19656;50.096;20.014;2023-04-07T16:53:17;98975.38;;;6.19;71.53
33286;BME280;19656;50.096;20.014;2023-04-07T16:58:23;98982.18;;;6.21;71.42
33286;BME280;19656;50.096;20.014;2023-04-07T17:03:30;98990.05;;;6.26;71.27
33286;BME280;19656;50.096;20.014;2023-04-07T17:08:37;98993.42;;;6.29;71.82
33286;BME280;19656;50.096;20.014;2023-04-07T17:13:42;98999.24;;;6.26;71.14
33286;BME280;19656;50.096;20.014;2023-04-07T17:19:11;99008.57;;;6.10;71.39
33286;BME280;19656;50.096;20.014;2023-04-07T17:24:15;99013.65;;;6.03;71.81
33286;BME280;19656;50.096;20.014;2023-04-07T17:29:23;99020.05;;;6.05;72.53
33286;BME280;19656;50.096;20.014;2023-04-07T17:41:49;99026.44;;;6.16;72.52
33286;BME280;19656;50.096;20.014;2023-04-07T17:47:14;99029.59;;;6.40;73.76
33286;BME280;19656;50.096;20.014;2023-04-07T17:52:47;99034.19;;;6.55;71.46
33286;BME280;19656;50.096;20.014;2023-04-07T18:04:42;99053.20;;;6.20;71.00
33286;BME280;19656;50.096;20.014;2023-04-07T18:35:49;99092.45;;;5.91;71.79
33286;BME280;19656;50.096;20.014;2023-04-07T18:42:04;99100.02;;;5.91;71.84
33286;BME280;19656;50.096;20.014;2023-04-07T18:56:56;99111.89;;;6.07;72.89
33286;BME280;19656;50.096;20.014;2023-04-07T19:02:00;99112.63;;;6.19;71.44
33286;BME280;19656;50.096;20.014;2023-04-07T19:07:04;99123.75;;;6.10;71.11
33286;BME280;19656;50.096;20.014;2023-04-07T19:12:07;99127.80;;;6.02;71.01
33286;BME280;19656;50.096;20.014;2023-04-07T19:17:11;99129.10;;;5.96;71.07
33286;BME280;19656;50.096;20.014;2023-04-07T19:22:15;99138.34;;;5.89;71.10
33286;BME280;19656;50.096;20.014;2023-04-07T19:27:19;99142.79;;;5.92;71.47
33286;BME280;19656;50.096;20.014;2023-04-07T19:32:22;99148.38;;;5.98;71.44
33286;BME280;19656;50.096;20.014;2023-04-07T19:37:26;99155.29;;;6.06;71.21
33286;BME280;19656;50.096;20.014;2023-04-07T19:42:30;99160.82;;;6.04;71.12
33286;BME280;19656;50.096;20.014;2023-04-07T19:47:34;99161.70;;;6.00;71.12
33286;BME280;19656;50.096;20.014;2023-04-07T19:52:38;99164.73;;;6.03;70.99
33286;BME280;19656;50.096;20.014;2023-04-07T19:57:42;99172.05;;;5.96;70.47
33286;BME280;19656;50.096;20.014;2023-04-07T20:02:45;99172.91;;;5.92;70.64
33286;BME280;19656;50.096;20.014;2023-04-07T20:07:49;99176.42;;;5.97;70.75
33286;BME280;19656;50.096;20.014;2023-04-07T20:12:53;99183.24;;;6.03;70.57
33286;BME280;19656;50.096;20.014;2023-04-07T20:17:57;99183.74;;;5.95;70.49
33286;BME280;19656;50.096;20.014;2023-04-07T20:23:00;99185.42;;;5.92;70.53
33286;BME280;19656;50.096;20.014;2023-04-07T20:28:04;99188.96;;;5.91;70.55
33286;BME280;19656;50.096;20.014;2023-04-07T20:33:07;99188.17;;;5.94;70.82
33286;BME280;19656;50.096;20.014;2023-04-07T20:38:11;99193.80;;;5.94;70.73
33286;BME280;19656;50.096;20.014;2023-04-07T20:43:15;99199.46;;;5.98;70.67
33286;BME280;19656;50.096;20.014;2023-04-07T20:48:20;99200.55;;;5.97;70.63
33286;BME280;19656;50.096;20.014;2023-04-07T20:53:26;99206.80;;;5.90;70.61
33286;BME280;19656;50.096;20.014;2023-04-07T20:58:30;99203.81;;;5.89;70.64
33286;BME280;19656;50.096;20.014;2023-04-07T21:03:33;99210.20;;;5.84;70.74
33286;BME280;19656;50.096;20.014;2023-04-07T21:08:38;99204.21;;;5.84;71.08
33286;BME280;19656;50.096;20.014;2023-04-07T21:13:41;99213.34;;;5.80;70.88
33286;BME280;19656;50.096;20.014;2023-04-07T21:18:45;99212.30;;;5.75;71.01
33286;BME280;19656;50.096;20.014;2023-04-07T21:23:48;99211.91;;;5.76;71.02
33286;BME280;19656;50.096;20.014;2023-04-07T21:28:52;99209.84;;;5.76;71.04
33286;BME280;19656;50.096;20.014;2023-04-07T21:33:55;99211.57;;;5.76;70.98
33286;BME280;19656;50.096;20.014;2023-04-07T21:38:59;99210.96;;;5.74;70.95
33286;BME280;19656;50.096;20.014;2023-04-07T21:44:05;99211.27;;;5.70;70.77
33286;BME280;19656;50.096;20.014;2023-04-07T21:49:09;99214.41;;;5.66;70.96
33286;BME280;19656;50.096;20.014;2023-04-07T21:54:13;99217.70;;;5.63;71.03
33286;BME280;19656;50.096;20.014;2023-04-07T21:59:17;99214.69;;;5.59;71.10
33286;BME280;19656;50.096;20.014;2023-04-07T22:04:20;99211.84;;;5.56;70.95
33286;BME280;19656;50.096;20.014;2023-04-07T22:09:24;99215.65;;;5.62;70.94
33286;BME280;19656;50.096;20.014;2023-04-07T22:14:28;99214.33;;;5.68;70.96
33286;BME280;19656;50.096;20.014;2023-04-07T22:19:31;99217.06;;;5.70;70.77
33286;BME280;19656;50.096;20.014;2023-04-07T22:24:34;99216.23;;;5.69;70.79
33286;BME280;19656;50.096;20.014;2023-04-07T22:29:38;99214.73;;;5.63;70.73
33286;BME280;19656;50.096;20.014;2023-04-07T22:34:41;99216.89;;;5.62;70.68
33286;BME280;19656;50.096;20.014;2023-04-07T22:39:44;99214.40;;;5.62;70.87
33286;BME280;19656;50.096;20.014;2023-04-07T22:44:48;99218.23;;;5.63;70.64
33286;BME280;19656;50.096;20.014;2023-04-07T22:49:51;99218.83;;;5.61;70.53
33286;BME280;19656;50.096;20.014;2023-04-07T22:54:55;99222.41;;;5.60;70.64
33286;BME280;19656;50.096;20.014;2023-04-07T22:59:59;99224.64;;;5.57;70.35
33286;BME280;19656;50.096;20.014;2023-04-07T23:05:03;99228.31;;;5.53;70.37
33286;BME280;19656;50.096;20.014;2023-04-07T23:10:09;99228.02;;;5.56;70.45
33286;BME280;19656;50.096;20.014;2023-04-07T23:15:13;99224.98;;;5.53;70.24
33286;BME280;19656;50.096;20.014;2023-04-07T23:20:16;99225.78;;;5.50;70.23
33286;BME280;19656;50.096;20.014;2023-04-07T23:25:20;99228.78;;;5.41;70.31
33286;BME280;19656;50.096;20.014;2023-04-07T23:30:23;99233.02;;;5.35;70.46
33286;BME280;19656;50.096;20.014;2023-04-07T23:35:27;99237.25;;;5.31;70.58
33286;BME280;19656;50.096;20.014;2023-04-07T23:40:30;99235.34;;;5.30;70.38
33286;BME280;19656;50.096;20.014;2023-04-07T23:45:34;99240.52;;;5.28;70.26
33286;BME280;19656;50.096;20.014;2023-04-07T23:50:38;99242.48;;;5.27;70.19
33286;BME280;19656;50.096;20.014;2023-04-07T23:55:41;99245.46;;;5.28;70.02
